Time;durP1;ratioP1;P1;durP2;ratioP2;P2;SDS_P1;SDS_P2;PMS_P1;PMS_P2;Temp;Humidity;BMP_temperature;BMP_pressure;BME280_temperature;BME280_humidity;BME280_pressure;Samples;Min_cycle;Max_cycle;Signal;HPM_P1;HPM_P2
2023/06/09 00:02:09;;;;;;;14.73;5.65;;;;;;;19.84;63.27;100489.44;5056703;28;20484;-90
2023/06/09 00:04:35;;;;;;;7.57;5.28;;;;;;;19.65;63.52;100466.28;5056391;28;20039;-89
2023/06/09 00:07:02;;;;;;;10.82;5.25;;;;;;;19.81;63.49;100487.09;5074065;28;20056;-89
2023/06/09 00:09:29;;;;;;;21.05;6.20;;;;;;;19.72;62.69;100483.63;5056729;28;20099;-91
2023/06/09 00:11:55;;;;;;;6.70;4.65;;;;;;;19.74;62.78;100486.13;5056565;28;20454;-90
2023/06/09 00:14:20;;;;;;;7.72;3.83;;;;;;;19.71;62.64;100497.44;5074029;28;20025;-90
2023/06/09 00:16:46;;;;;;;11.48;5.43;;;;;;;19.71;62.83;100497.44;5056442;28;20024;-90
2023/06/09 00:19:13;;;;;;;8.65;5.15;;;;;;;19.60;62.74;100473.34;5074617;28;20090;-91
2023/06/09 00:21:39;;;;;;;12.05;4.28;;;;;;;19.72;62.91;100485.50;5057438;28;20036;-91
2023/06/09 00:24:05;;;;;;;10.80;5.22;;;;;;;19.60;62.74;100459.72;5075446;28;20507;-89
2023/06/09 00:26:30;;;;;;;13.05;4.95;;;;;;;19.70;62.64;100473.91;5075236;28;20040;-89
2023/06/09 00:28:56;;;;;;;8.55;4.72;;;;;;;19.74;62.48;100483.41;5056871;28;20052;-91
2023/06/09 00:31:21;;;;;;;13.25;5.28;;;;;;;19.53;62.63;100465.91;5057407;28;20120;-90
2023/06/09 00:33:47;;;;;;;12.30;4.95;;;;;;;19.60;62.74;100467.88;5058861;28;20027;-90
2023/06/09 00:36:12;;;;;;;10.20;4.43;;;;;;;19.68;62.02;100492.34;5078490;28;20449;-92
2023/06/09 00:38:38;;;;;;;6.32;3.85;;;;;;;19.52;61.86;100466.94;5080428;28;20021;-90
2023/06/09 00:41:03;;;;;;;17.83;4.63;;;;;;;19.41;61.56;100451.03;5078847;28;20036;-95
2023/06/09 00:43:29;;;;;;;15.52;4.65;;;;;;;19.50;61.27;100460.81;5096372;28;20024;-91
2023/06/09 00:45:55;;;;;;;9.15;4.43;;;;;;;19.61;61.63;100485.94;5056764;28;20496;-91
2023/06/09 00:48:20;;;;;;;6.35;4.10;;;;;;;19.55;61.23;100468.44;5073674;28;20028;-89
2023/06/09 00:50:47;;;;;;;7.43;4.43;;;;;;;19.37;61.66;100446.94;5031492;28;20133;-92
2023/06/09 00:53:15;;;;;;;11.95;4.55;;;;;;;19.46;61.17;100453.19;5031322;28;20042;-91
2023/06/09 00:55:40;;;;;;;8.48;4.40;;;;;;;19.62;61.03;100468.53;5014934;28;20041;-91
2023/06/09 00:58:07;;;;;;;10.90;4.50;;;;;;;19.66;61.11;100467.13;5031819;28;20594;-89
2023/06/09 01:00:35;;;;;;;9.18;5.10;;;;;;;19.64;61.12;100480.97;5013038;28;20038;-89
2023/06/09 01:03:02;;;;;;;6.40;4.53;;;;;;;19.57;61.33;100469.09;5010918;28;20507;-89
2023/06/09 01:05:38;;;;;;;12.00;5.10;;;;;;;19.57;62.12;100474.53;5011062;28;20042;-89
2023/06/09 01:08:15;;;;;;;18.67;6.00;;;;;;;19.57;62.62;100479.19;5009749;28;20038;-90
2023/06/09 01:10:49;;;;;;;20.83;7.55;;;;;;;19.45;63.23;100467.84;5009413;28;20042;-88
2023/06/09 01:13:24;;;;;;;21.73;7.05;;;;;;;19.43;63.63;100478.97;5010470;28;20045;-89
2023/06/09 01:16:01;;;;;;;18.67;7.60;;;;;;;19.21;64.01;100463.44;5010350;28;20038;-87
2023/06/09 01:18:30;;;;;;;27.65;6.13;;;;;;;19.18;64.21;100469.28;5010165;28;20620;-89
2023/06/09 01:21:14;;;;;;;30.85;7.10;;;;;;;19.04;64.54;100440.09;5016563;28;20041;-89
2023/06/09 01:23:40;;;;;;;19.52;6.85;;;;;;;19.15;64.22;100456.00;5050122;28;20044;-89
2023/06/09 01:26:07;;;;;;;28.65;6.45;;;;;;;19.16;63.97;100455.00;5033441;28;20036;-88
2023/06/09 01:28:35;;;;;;;17.40;5.78;;;;;;;19.20;64.31;100472.69;5050682;28;20104;-88
2023/06/09 01:31:01;;;;;;;15.32;5.28;;;;;;;19.06;64.29;100457.09;5035316;28;20037;-88
2023/06/09 01:33:27;;;;;;;21.38;5.72;;;;;;;19.30;63.65;100470.53;4993673;28;20105;-89
2023/06/09 01:35:53;;;;;;;24.40;6.55;;;;;;;19.15;63.67;100463.34;5001482;28;20050;-89
2023/06/09 01:38:21;;;;;;;25.23;7.03;;;;;;;19.02;63.80;100436.69;5029023;28;20034;-90
2023/06/09 01:40:47;;;;;;;23.40;7.85;;;;;;;19.08;64.07;100446.03;5029870;28;20042;-90
2023/06/09 01:43:13;;;;;;;25.20;7.72;;;;;;;18.99;64.04;100447.97;5026949;28;20022;-87
2023/06/09 01:45:38;;;;;;;28.38;8.93;;;;;;;19.08;64.11;100460.50;5021272;28;20593;-91
2023/06/09 01:48:41;;;;;;;21.65;7.00;;;;;;;19.19;63.97;100453.75;5010481;28;20088;-89
2023/06/09 01:51:18;;;;;;;22.52;7.15;;;;;;;19.05;63.89;100443.69;5009931;28;20064;-89
2023/06/09 01:53:51;;;;;;;21.42;7.30;;;;;;;19.04;63.63;100445.56;5010264;28;20108;-88
2023/06/09 01:56:36;;;;;;;20.38;6.65;;;;;;;19.03;63.50;100439.25;4993604;28;20149;-89
2023/06/09 01:59:07;;;;;;;10.32;4.35;;;;;;;18.87;62.95;100405.81;4993945;28;20034;-89
2023/06/09 02:01:34;;;;;;;14.20;5.45;;;;;;;19.00;62.79;100427.88;4994675;28;20034;-91
2023/06/09 02:04:02;;;;;;;20.70;7.03;;;;;;;19.07;62.41;100438.88;5017238;28;20505;-92
2023/06/09 02:06:28;;;;;;;11.35;4.57;;;;;;;19.11;61.54;100430.13;5025635;28;20042;-96
2023/06/09 02:08:53;;;;;;;9.30;4.68;;;;;;;19.03;61.52;100420.16;5025902;28;20509;-91
2023/06/09 02:11:19;;;;;;;5.93;3.78;;;;;;;19.12;61.41;100423.66;5012104;28;20041;-92
2023/06/09 02:13:53;;;;;;;11.07;3.97;;;;;;;19.02;61.21;100413.00;5030223;28;20045;-89
2023/06/09 02:16:18;;;;;;;13.32;4.82;;;;;;;19.16;61.54;100452.25;5029760;28;20094;-90
2023/06/09 02:18:44;;;;;;;10.50;4.63;;;;;;;19.08;61.48;100435.13;5013667;28;20497;-89
2023/06/09 02:21:10;;;;;;;12.52;5.32;;;;;;;19.13;61.86;100449.91;5030030;28;20168;-89
2023/06/09 02:23:38;;;;;;;15.68;6.05;;;;;;;19.06;62.07;100443.47;5030967;28;20120;-89
2023/06/09 02:26:03;;;;;;;24.98;6.15;;;;;;;18.90;62.00;100433.56;5031797;28;20537;-89
2023/06/09 02:28:29;;;;;;;16.75;7.30;;;;;;;19.01;62.65;100454.09;5032712;28;20033;-89
2023/06/09 02:30:54;;;;;;;21.70;7.43;;;;;;;18.77;63.13;100416.16;5032068;28;20161;-88
2023/06/09 02:33:20;;;;;;;22.33;7.93;;;;;;;18.88;63.31;100429.34;5047676;28;20041;-94
2023/06/09 02:35:45;;;;;;;15.32;7.90;;;;;;;18.96;63.05;100438.28;5052698;28;20038;-93
2023/06/09 02:38:11;;;;;;;40.50;9.50;;;;;;;18.82;63.18;100430.06;5039027;28;20034;-89
2023/06/09 02:40:42;;;;;;;29.00;7.70;;;;;;;18.88;63.05;100446.53;5033935;28;20029;-91
2023/06/09 02:43:08;;;;;;;9.00;4.07;;;;;;;18.81;62.18;100423.75;5054666;28;20051;-89
2023/06/09 02:45:33;;;;;;;7.03;3.92;;;;;;;18.86;61.81;100423.22;5075240;28;20147;-88
2023/06/09 02:47:59;;;;;;;11.02;4.00;;;;;;;19.09;61.51;100453.16;5058657;28;20101;-89
2023/06/09 02:50:24;;;;;;;8.48;4.45;;;;;;;19.10;61.70;100463.91;5075608;28;20082;-88
2023/06/09 02:52:49;;;;;;;12.52;4.57;;;;;;;18.95;61.84;100446.66;5074678;28;20024;-91
2023/06/09 02:55:18;;;;;;;15.65;5.13;;;;;;;19.11;62.07;100468.31;5076226;28;20457;-91
2023/06/09 02:57:44;;;;;;;12.65;4.90;;;;;;;18.97;62.14;100455.50;5077023;28;20048;-89
2023/06/09 03:00:12;;;;;;;9.23;5.03;;;;;;;19.03;61.91;100460.22;5078393;28;20078;-89
2023/06/09 03:02:38;;;;;;;17.80;5.25;;;;;;;19.06;61.98;100468.00;5059442;28;20045;-88
2023/06/09 03:05:05;;;;;;;10.18;5.07;;;;;;;18.89;62.15;100452.84;5075622;28;20102;-89
2023/06/09 03:07:31;;;;;;;11.38;5.60;;;;;;;18.95;62.59;100468.47;5076283;28;20032;-89
2023/06/09 03:09:57;;;;;;;16.85;6.30;;;;;;;19.06;62.65;100481.66;5065280;28;20029;-90
2023/06/09 03:12:22;;;;;;;14.23;6.07;;;;;;;19.02;62.51;100470.25;5056187;28;20063;-91
2023/06/09 03:14:48;;;;;;;23.92;6.95;;;;;;;19.09;62.56;100475.81;5038704;28;20488;-91
2023/06/09 03:17:14;;;;;;;20.90;6.97;;;;;;;19.15;62.63;100468.78;5057086;28;20024;-89
2023/06/09 03:19:39;;;;;;;26.13;6.30;;;;;;;19.18;62.33;100469.28;5057294;28;20130;-88
2023/06/09 03:22:05;;;;;;;23.20;7.85;;;;;;;19.05;62.91;100460.84;5061050;28;20037;-89
2023/06/09 03:24:33;;;;;;;20.65;6.00;;;;;;;19.07;62.94;100458.81;5058481;28;20036;-87
2023/06/09 03:26:59;;;;;;;7.97;4.95;;;;;;;19.01;62.83;100456.81;5058825;28;20032;-90
2023/06/09 03:29:24;;;;;;;13.70;5.57;;;;;;;19.04;62.78;100456.47;5068555;28;20025;-92
2023/06/09 03:31:50;;;;;;;16.45;5.95;;;;;;;19.02;62.82;100459.34;5077547;28;20029;-94
2023/06/09 03:34:16;;;;;;;22.15;6.00;;;;;;;19.12;62.92;100471.88;5068136;28;20507;-88
2023/06/09 03:36:41;;;;;;;17.08;5.47;;;;;;;19.14;62.82;100469.84;5055415;28;20032;-89
2023/06/09 03:39:07;;;;;;;29.30;9.85;;;;;;;19.28;63.06;100496.28;5056135;28;20058;-88
2023/06/09 03:41:33;;;;;;;22.25;9.95;;;;;;;19.09;63.43;100459.47;5055649;28;20029;-88
2023/06/09 03:43:59;;;;;;;36.33;11.80;;;;;;;19.12;63.56;100474.59;5054759;28;20033;-89
2023/06/09 03:46:24;;;;;;;53.47;12.00;;;;;;;19.15;63.75;100480.53;5055206;28;20086;-88
2023/06/09 03:48:51;;;;;;;28.95;11.32;;;;;;;19.18;63.93;100479.31;5054730;28;20072;-91
2023/06/09 03:51:17;;;;;;;23.58;11.23;;;;;;;19.23;64.25;100490.56;5074718;28;20052;-87
2023/06/09 03:53:42;;;;;;;37.40;13.15;;;;;;;19.13;64.06;100469.00;5072299;28;20024;-85
2023/06/09 03:56:08;;;;;;;33.58;12.13;;;;;;;19.28;64.21;100485.38;5063461;28;20116;-87
2023/06/09 03:58:54;;;;;;;43.83;12.95;;;;;;;19.08;64.08;100452.31;5056873;28;20056;-95
2023/06/09 04:01:21;;;;;;;30.48;11.38;;;;;;;19.14;64.24;100464.38;5000317;28;20048;-95
2023/06/09 04:03:47;;;;;;;29.17;12.20;;;;;;;19.02;64.72;100436.69;5005054;28;20034;-95
2023/06/09 04:11:23;;;;;;;64.65;14.10;;;;;;;19.56;64.39;100483.78;5582768;22;20053;-92
2023/06/09 04:13:48;;;;;;;35.72;11.30;;;;;;;19.61;63.90;100469.56;5067146;28;20445;-86
2023/06/09 04:16:17;;;;;;;38.58;11.20;;;;;;;19.58;63.60;100453.56;5066231;28;20097;-95
2023/06/09 04:18:49;;;;;;;38.88;12.60;;;;;;;19.62;63.65;100466.66;5033796;28;20046;-87
2023/06/09 04:21:14;;;;;;;36.70;13.23;;;;;;;19.60;63.53;100473.34;5029759;28;20060;-84
2023/06/09 04:23:40;;;;;;;52.42;16.00;;;;;;;19.61;63.65;100484.06;5015049;28;20034;-84
2023/06/09 04:26:09;;;;;;;42.00;14.40;;;;;;;19.70;63.65;100491.13;5032409;28;20084;-88
2023/06/09 04:28:35;;;;;;;39.15;13.93;;;;;;;19.50;63.93;100452.66;5035822;28;20053;-82
2023/06/09 04:31:01;;;;;;;39.38;14.27;;;;;;;19.73;63.69;100460.72;5019099;28;20512;-84
2023/06/09 04:33:26;;;;;;;51.47;15.70;;;;;;;20.01;63.37;100490.94;5022714;28;20486;-89
2023/06/09 04:35:54;;;;;;;37.00;12.38;;;;;;;19.92;62.63;100462.91;5010945;28;20069;-92
2023/06/09 04:38:23;;;;;;;42.45;11.90;;;;;;;20.16;62.66;100494.50;4997950;28;20073;-90
2023/06/09 04:40:49;;;;;;;51.00;13.70;;;;;;;20.30;62.71;100499.16;5018190;28;20066;-89
2023/06/09 04:43:16;;;;;;;47.75;11.38;;;;;;;20.42;62.51;100500.34;5012333;28;20057;-89
2023/06/09 04:45:43;;;;;;;43.45;12.05;;;;;;;20.59;61.98;100515.47;5010493;28;20080;-91
2023/06/09 04:48:08;;;;;;;54.97;11.70;;;;;;;20.59;61.78;100496.34;4993863;28;20113;-88
2023/06/09 04:50:35;;;;;;;37.42;11.57;;;;;;;20.81;61.55;100510.03;5045983;28;20088;-90
2023/06/09 04:53:04;;;;;;;50.78;11.57;;;;;;;20.91;61.20;100500.50;5033913;28;20561;-92
2023/06/09 04:55:30;;;;;;;47.50;13.45;;;;;;;21.01;60.66;100514.66;5051533;28;20028;-90
2023/06/09 04:57:57;;;;;;;58.63;16.25;;;;;;;21.07;60.41;100507.56;5033200;28;20052;-91
2023/06/09 05:00:26;;;;;;;56.28;14.63;;;;;;;21.12;60.42;100499.69;5052279;28;20115;-89
2023/06/09 05:02:53;;;;;;;37.60;14.38;;;;;;;21.17;60.21;100486.25;5052810;28;20029;-88
2023/06/09 05:05:19;;;;;;;50.40;14.82;;;;;;;21.45;60.05;100517.22;5054773;28;20037;-88
2023/06/09 05:07:44;;;;;;;58.60;14.00;;;;;;;21.58;59.95;100528.28;5053885;28;20161;-87
2023/06/09 05:10:10;;;;;;;54.83;15.23;;;;;;;21.58;59.53;100495.44;5058617;28;20108;-88
2023/06/09 05:12:37;;;;;;;47.35;13.68;;;;;;;21.74;59.83;100513.47;5053907;28;20025;-91
2023/06/09 05:15:03;;;;;;;38.53;15.85;;;;;;;21.83;60.15;100519.63;5037019;28;20037;-89
2023/06/09 05:17:30;;;;;;;55.70;15.73;;;;;;;21.89;60.04;100516.13;5057666;28;20033;-89
2023/06/09 05:19:59;;;;;;;51.38;16.08;;;;;;;21.91;59.83;100501.16;5058381;28;20033;-87
2023/06/09 05:22:25;;;;;;;45.97;14.43;;;;;;;22.14;59.63;100517.31;5053467;28;20024;-92
2023/06/09 05:24:50;;;;;;;58.72;15.27;;;;;;;22.24;59.28;100513.16;5071099;28;20083;-82
2023/06/09 05:27:16;;;;;;;40.53;15.25;;;;;;;22.26;59.00;100506.63;5037019;28;20119;-88
2023/06/09 05:29:41;;;;;;;54.25;16.48;;;;;;;22.27;58.97;100506.41;5051436;28;20032;-83
2023/06/09 05:32:08;;;;;;;46.95;14.05;;;;;;;22.29;58.63;100512.56;5049773;28;20533;-86
2023/06/09 05:34:33;;;;;;;41.25;15.35;;;;;;;22.30;58.58;100495.06;5050223;28;20024;-85
2023/06/09 05:36:59;;;;;;;55.53;15.82;;;;;;;22.51;58.15;100505.88;5049918;28;20029;-88
2023/06/09 05:39:24;;;;;;;38.28;13.93;;;;;;;22.65;57.96;100510.41;5042522;28;20099;-86
2023/06/09 05:41:50;;;;;;;48.15;14.25;;;;;;;22.81;57.51;100502.88;5030106;28;20036;-85
2023/06/09 05:44:15;;;;;;;60.67;16.52;;;;;;;22.92;57.56;100499.50;5044595;28;20100;-85
2023/06/09 05:46:41;;;;;;;45.90;14.88;;;;;;;23.02;56.97;100494.47;5050165;28;20115;-81
2023/06/09 05:49:06;;;;;;;57.58;16.33;;;;;;;23.17;56.62;100503.34;5050335;28;20082;-84
2023/06/09 05:51:35;;;;;;;47.28;21.13;;;;;;;23.14;56.45;100499.13;5045814;28;20386;-86
2023/06/09 05:54:00;;;;;;;40.42;13.43;;;;;;;23.19;56.35;100507.56;5052013;28;20025;-92
2023/06/09 05:56:26;;;;;;;26.70;13.70;;;;;;;23.18;56.24;100491.31;5033612;28;20163;-92
2023/06/09 05:58:52;;;;;;;36.05;14.35;;;;;;;23.13;55.85;100493.84;5054187;28;20043;-90
2023/06/09 06:01:20;;;;;;;33.42;13.48;;;;;;;23.30;55.76;100500.63;5052750;28;20033;-91
2023/06/09 06:03:46;;;;;;;33.47;12.93;;;;;;;23.33;55.48;100491.97;5034741;28;20025;-91
2023/06/09 06:06:12;;;;;;;50.88;16.30;;;;;;;23.42;55.31;100485.25;5051799;28;20420;-91
2023/06/09 06:08:38;;;;;;;56.20;14.48;;;;;;;23.52;55.05;100485.66;5034426;28;20025;-90
2023/06/09 06:11:04;;;;;;;29.10;14.48;;;;;;;23.54;54.79;100491.78;5052135;28;20493;-91
2023/06/09 06:13:30;;;;;;;43.42;13.80;;;;;;;23.71;54.22;100505.91;5039971;28;20123;-90
2023/06/09 06:15:58;;;;;;;31.30;12.63;;;;;;;23.80;53.46;100499.97;5061109;28;20033;-91
2023/06/09 06:18:23;;;;;;;32.60;12.07;;;;;;;23.88;53.48;100512.66;5051236;28;20017;-90
2023/06/09 06:20:49;;;;;;;27.90;11.20;;;;;;;23.84;53.45;100515.00;5078544;28;20098;-92
2023/06/09 06:23:14;;;;;;;44.25;11.32;;;;;;;23.91;52.87;100505.91;5056459;28;20032;-91
2023/06/09 06:25:41;;;;;;;43.47;11.75;;;;;;;23.96;52.64;100515.19;5056993;28;20059;-91
2023/06/09 06:28:06;;;;;;;33.33;14.18;;;;;;;23.95;52.40;100485.16;5067117;28;20403;-90
2023/06/09 06:30:33;;;;;;;39.85;12.10;;;;;;;24.06;51.88;100490.84;5063072;28;20109;-87
2023/06/09 06:32:58;;;;;;;42.75;12.77;;;;;;;24.29;51.69;100499.47;5054458;28;20075;-85
2023/06/09 06:35:29;;;;;;;34.15;10.13;;;;;;;24.40;51.45;100499.84;5059959;28;20021;-87
2023/06/09 06:37:55;;;;;;;30.52;9.80;;;;;;;24.50;51.15;100495.56;5060836;28;20033;-84
2023/06/09 06:40:21;;;;;;;31.17;11.80;;;;;;;24.56;50.53;100497.44;5062852;28;20024;-85
2023/06/09 06:42:47;;;;;;;15.15;6.95;;;;;;;24.66;49.93;100497.81;5054688;28;20029;-87
2023/06/09 06:45:12;;;;;;;17.20;7.07;;;;;;;24.65;49.25;100487.88;5054078;28;20021;-86
2023/06/09 06:47:40;;;;;;;16.42;9.73;;;;;;;24.63;48.72;100495.50;5053692;28;20055;-87
2023/06/09 06:50:08;;;;;;;19.45;7.07;;;;;;;24.64;48.59;100497.22;5054495;28;20028;-87
2023/06/09 06:52:33;;;;;;;24.52;6.68;;;;;;;24.81;47.96;100503.91;5054152;28;20151;-88
2023/06/09 06:54:59;;;;;;;43.60;7.57;;;;;;;24.78;48.43;100487.81;5054561;28;20095;-87
2023/06/09 06:57:24;;;;;;;20.30;6.53;;;;;;;24.96;48.44;100484.34;5053999;28;20081;-83
2023/06/09 06:59:50;;;;;;;20.00;6.07;;;;;;;25.02;48.25;100488.09;5054317;28;20035;-84
2023/06/09 07:02:16;;;;;;;25.83;6.60;;;;;;;24.99;48.11;100463.78;5055786;28;20023;-86
2023/06/09 07:04:41;;;;;;;11.95;4.90;;;;;;;25.08;47.46;100487.22;5039294;28;20049;-85
2023/06/09 07:07:08;;;;;;;24.38;5.60;;;;;;;24.75;47.82;100482.75;5051256;28;20032;-81
2023/06/09 07:09:34;;;;;;;14.10;5.55;;;;;;;24.69;48.38;100486.38;5054290;28;20025;-81
2023/06/09 07:12:00;;;;;;;39.28;7.78;;;;;;;24.70;48.44;100479.81;5058085;28;20072;-82
2023/06/09 07:14:25;;;;;;;9.38;4.43;;;;;;;24.66;48.28;100486.81;5053633;28;20037;-83
2023/06/09 07:16:50;;;;;;;13.40;4.60;;;;;;;24.59;49.01;100494.25;5056306;28;20512;-79
2023/06/09 07:19:16;;;;;;;20.48;4.65;;;;;;;24.55;48.59;100476.53;5043059;28;20036;-80
2023/06/09 07:21:41;;;;;;;11.13;5.97;;;;;;;24.64;49.27;100494.47;5031540;28;20075;-81
2023/06/09 07:24:07;;;;;;;27.90;5.90;;;;;;;24.74;49.22;100480.19;5030968;28;20029;-85
2023/06/09 07:26:32;;;;;;;18.40;4.22;;;;;;;24.87;48.69;100485.66;5030734;28;20025;-82
2023/06/09 07:28:58;;;;;;;8.10;4.05;;;;;;;24.68;49.25;100481.09;5015360;28;20468;-84
2023/06/09 07:31:23;;;;;;;22.30;5.53;;;;;;;24.85;49.36;100488.66;5033040;28;20029;-85
2023/06/09 07:33:50;;;;;;;9.23;4.45;;;;;;;24.74;49.74;100470.03;5032000;28;20067;-82
2023/06/09 07:36:16;;;;;;;14.88;4.45;;;;;;;24.89;49.60;100481.63;5039601;28;20033;-83
2023/06/09 07:38:46;;;;;;;29.98;5.43;;;;;;;25.03;49.62;100474.13;5051357;28;20531;-79
2023/06/09 07:41:12;;;;;;;17.10;4.25;;;;;;;25.07;48.56;100463.53;5051651;28;20052;-80
2023/06/09 07:43:37;;;;;;;10.35;4.70;;;;;;;25.12;48.86;100469.19;5051306;28;20021;-81
2023/06/09 07:46:03;;;;;;;10.77;3.85;;;;;;;25.30;47.68;100472.03;5051079;28;20132;-82
2023/06/09 07:48:28;;;;;;;23.40;6.18;;;;;;;25.36;47.69;100460.09;5051036;28;20039;-84
2023/06/09 07:50:54;;;;;;;10.80;3.30;;;;;;;25.39;47.56;100457.75;5051435;28;20059;-86
2023/06/09 07:53:22;;;;;;;12.40;3.30;;;;;;;25.18;46.44;100454.53;5051318;28;20024;-86
2023/06/09 07:55:48;;;;;;;33.72;6.28;;;;;;;25.44;46.64;100455.16;5051881;28;20029;-86
2023/06/09 07:58:14;;;;;;;29.35;4.22;;;;;;;25.55;46.34;100464.63;5051578;28;20086;-86
2023/06/09 08:00:41;;;;;;;7.65;3.10;;;;;;;25.64;46.13;100471.53;5051308;28;20053;-86
2023/06/09 08:03:06;;;;;;;11.80;3.67;;;;;;;25.63;45.63;100475.34;5050963;28;20400;-86
2023/06/09 08:05:32;;;;;;;8.48;3.50;;;;;;;25.60;46.59;100481.31;5052202;28;20094;-87
2023/06/09 08:07:58;;;;;;;20.17;3.50;;;;;;;25.44;46.82;100465.34;5054417;28;20052;-87
2023/06/09 08:10:24;;;;;;;34.92;7.15;;;;;;;25.25;48.15;100474.63;5053579;28;20061;-85
2023/06/09 08:12:52;;;;;;;12.52;3.97;;;;;;;25.44;48.78;100465.34;5066391;28;20024;-87
2023/06/09 08:15:18;;;;;;;13.82;4.03;;;;;;;25.54;47.35;100459.34;5054186;28;20040;-85
2023/06/09 08:17:43;;;;;;;7.35;2.95;;;;;;;25.17;45.71;100463.84;5060723;28;20452;-87
2023/06/09 08:20:10;;;;;;;7.68;3.35;;;;;;;25.13;46.00;100484.66;5051788;28;20232;-85
2023/06/09 08:22:36;;;;;;;12.18;3.67;;;;;;;25.17;46.94;100475.72;5051891;28;20043;-85
2023/06/09 08:25:03;;;;;;;12.57;3.08;;;;;;;25.32;47.36;100489.16;5053178;28;20473;-88
2023/06/09 08:27:28;;;;;;;26.95;5.20;;;;;;;25.28;46.09;100475.00;5054267;28;20029;-87
2023/06/09 08:29:53;;;;;;;12.73;3.80;;;;;;;25.35;46.53;100488.72;5051879;28;20107;-87
2023/06/09 08:32:19;;;;;;;26.38;3.55;;;;;;;25.33;46.56;100474.31;5051155;28;20809;-87
2023/06/09 08:34:44;;;;;;;13.63;3.70;;;;;;;25.34;46.29;100482.38;5050196;28;20451;-85
2023/06/09 08:37:10;;;;;;;30.58;4.25;;;;;;;25.43;46.24;100470.00;5050073;28;20107;-88
2023/06/09 08:39:35;;;;;;;11.68;2.92;;;;;;;25.48;45.58;100450.03;5050999;28;20032;-87
2023/06/09 08:42:14;;;;;;;11.90;4.20;;;;;;;25.40;45.55;100461.34;5051010;28;20033;-86
2023/06/09 08:44:45;;;;;;;12.70;3.53;;;;;;;25.32;45.43;100445.94;5051206;28;20033;-85
2023/06/09 08:47:13;;;;;;;11.73;3.25;;;;;;;25.31;44.42;100454.44;5052126;28;20104;-87
2023/06/09 08:49:39;;;;;;;8.75;2.67;;;;;;;25.46;44.34;100452.19;5052206;28;20029;-86
2023/06/09 08:52:05;;;;;;;14.50;3.50;;;;;;;25.46;43.61;100454.94;5052828;28;20025;-87
2023/06/09 08:54:31;;;;;;;2.63;2.05;;;;;;;25.50;43.13;100464.47;5056760;28;20033;-86
2023/06/09 08:56:58;;;;;;;6.55;2.53;;;;;;;25.50;42.41;100458.97;5064840;28;20016;-86
2023/06/09 08:59:23;;;;;;;6.97;2.75;;;;;;;25.47;42.18;100453.88;5066486;28;20037;-84
2023/06/09 09:01:49;;;;;;;11.40;2.85;;;;;;;25.42;41.86;100439.94;5060058;28;20478;-84
2023/06/09 09:04:16;;;;;;;7.43;2.45;;;;;;;25.31;42.22;100462.69;5064531;28;20016;-85
2023/06/09 09:06:42;;;;;;;98.28;12.63;;;;;;;25.32;42.28;100448.69;5069568;28;20029;-83
2023/06/09 09:09:07;;;;;;;20.50;3.70;;;;;;;25.45;42.78;100442.22;5069930;28;20043;-88
2023/06/09 09:11:33;;;;;;;7.50;2.88;;;;;;;25.33;42.24;100438.53;5053119;28;20058;-85
2023/06/09 09:14:08;;;;;;;8.90;2.65;;;;;;;25.55;41.23;100458.28;5033636;28;20026;-87
2023/06/09 09:16:34;;;;;;;9.40;3.60;;;;;;;25.73;41.95;100450.88;5018363;28;20049;-87
2023/06/09 09:19:01;;;;;;;10.68;2.83;;;;;;;25.71;41.23;100453.03;5031210;28;20028;-85
2023/06/09 09:21:26;;;;;;;18.88;4.45;;;;;;;25.75;41.84;100442.38;5031103;28;20087;-85
2023/06/09 09:23:57;;;;;;;4.68;2.50;;;;;;;25.79;41.78;100451.88;5030602;28;20452;-85
2023/06/09 09:26:27;;;;;;;7.88;3.03;;;;;;;25.90;41.45;100442.88;5032278;28;20041;-86
2023/06/09 09:28:55;;;;;;;5.82;2.85;;;;;;;25.95;40.77;100445.78;5033094;28;20496;-84
2023/06/09 09:31:29;;;;;;;12.75;3.40;;;;;;;25.86;41.00;100436.13;5042933;28;20029;-84
2023/06/09 09:33:55;;;;;;;7.30;2.75;;;;;;;25.84;41.65;100432.78;5032202;28;20029;-85
2023/06/09 09:36:20;;;;;;;31.08;3.95;;;;;;;26.03;41.27;100425.31;5030543;28;20022;-87
2023/06/09 09:38:46;;;;;;;12.27;3.35;;;;;;;26.30;41.17;100432.22;5030957;28;20026;-86
2023/06/09 09:41:15;;;;;;;9.70;3.42;;;;;;;26.26;40.12;100433.78;5012984;28;20061;-85
2023/06/09 09:43:41;;;;;;;16.92;2.63;;;;;;;26.13;40.16;100422.88;5012691;28;20481;-86
2023/06/09 09:46:07;;;;;;;9.50;2.80;;;;;;;25.98;40.29;100415.84;5011870;28;20036;-86
2023/06/09 09:48:37;;;;;;;10.18;3.33;;;;;;;25.92;41.30;100414.00;5029662;28;20039;-86
2023/06/09 09:51:05;;;;;;;10.98;3.75;;;;;;;25.91;41.51;100417.84;5030179;28;20018;-87
2023/06/09 09:53:31;;;;;;;7.88;2.67;;;;;;;25.89;41.80;100402.59;5030488;28;20485;-87
2023/06/09 09:56:00;;;;;;;17.55;6.60;;;;;;;26.13;41.50;100398.06;5031539;28;20061;-85
2023/06/09 09:58:34;;;;;;;40.42;4.63;;;;;;;26.37;41.55;100400.72;5031636;28;20032;-86
2023/06/09 10:01:03;;;;;;;9.48;3.25;;;;;;;26.58;41.66;100401.28;5033571;28;20026;-86
2023/06/09 10:03:30;;;;;;;24.05;4.85;;;;;;;26.66;40.58;100407.34;5032600;28;20489;-86
2023/06/09 10:05:58;;;;;;;6.45;2.60;;;;;;;26.71;40.93;100401.09;5038715;28;20033;-86
2023/06/09 10:08:28;;;;;;;8.55;2.88;;;;;;;26.77;41.03;100395.47;5049159;28;20067;-83
2023/06/09 10:11:02;;;;;;;32.53;6.25;;;;;;;26.79;40.76;100375.91;5059016;28;20048;-86
2023/06/09 10:13:28;;;;;;;19.25;3.85;;;;;;;26.81;40.73;100376.56;5051457;28;20029;-80
2023/06/09 10:15:58;;;;;;;9.07;3.17;;;;;;;26.97;40.86;100371.19;5033013;28;20032;-86
2023/06/09 10:18:24;;;;;;;4.85;3.40;;;;;;;26.99;40.94;100384.75;5051907;28;20064;-93
2023/06/09 10:20:51;;;;;;;16.15;4.13;;;;;;;27.28;40.69;100377.44;5035769;28;20029;-94
2023/06/09 10:23:17;;;;;;;14.70;4.00;;;;;;;27.18;40.40;100369.78;5037196;28;20029;-93
2023/06/09 10:25:47;;;;;;;4.57;2.78;;;;;;;27.06;40.75;100359.81;5035089;28;20079;-92
2023/06/09 10:28:16;;;;;;;19.65;5.45;;;;;;;27.21;39.87;100365.69;5035397;28;20040;-86
2023/06/09 10:30:41;;;;;;;20.58;9.48;;;;;;;27.26;41.09;100365.81;5051581;28;20029;-90
2023/06/09 10:33:18;;;;;;;24.10;7.45;;;;;;;27.27;41.15;100364.75;5035649;28;20017;-90
2023/06/09 10:35:47;;;;;;;15.65;3.97;;;;;;;27.33;41.28;100364.63;5053240;28;20147;-90
2023/06/09 10:38:41;;;;;;;9.48;3.40;;;;;;;27.35;41.09;100358.84;5035597;28;20025;-91
2023/06/09 10:41:29;;;;;;;8.18;3.20;;;;;;;27.24;40.99;100371.59;5053956;28;20407;-90
2023/06/09 10:44:18;;;;;;;6.60;3.13;;;;;;;27.20;40.54;100364.84;4954660;28;20430;-91
2023/06/09 10:46:48;;;;;;;12.20;4.10;;;;;;;27.33;41.46;100369.31;4971035;28;20038;-89
2023/06/09 10:49:25;;;;;;;19.05;3.42;;;;;;;27.44;41.68;100374.00;4970615;28;20121;-91
2023/06/09 10:51:54;;;;;;;16.52;3.45;;;;;;;27.46;41.42;100366.34;4970650;28;20054;-95
2023/06/09 10:54:21;;;;;;;16.60;3.60;;;;;;;27.58;41.06;100367.16;4973816;28;20108;-88
2023/06/09 10:56:52;;;;;;;7.18;2.80;;;;;;;27.71;40.53;100357.75;4971299;28;20042;-81
2023/06/09 10:59:23;;;;;;;26.83;5.40;;;;;;;27.78;39.99;100355.69;4970889;28;20042;-83
2023/06/09 11:02:01;;;;;;;7.45;2.70;;;;;;;27.74;40.03;100362.78;4972612;28;20043;-84
2023/06/09 11:04:56;;;;;;;16.60;3.08;;;;;;;27.41;39.75;100350.44;4992561;28;20041;-91
2023/06/09 11:07:28;;;;;;;30.45;5.22;;;;;;;27.35;41.68;100354.16;4917273;29;20055;-86
2023/06/09 11:09:56;;;;;;;35.70;4.20;;;;;;;27.20;41.04;100375.06;4895832;29;20045;-85
2023/06/09 11:12:28;;;;;;;18.75;3.60;;;;;;;27.25;40.77;100369.63;4895460;29;20131;-87
2023/06/09 11:14:58;;;;;;;17.63;4.32;;;;;;;27.17;41.64;100378.28;4895493;29;20174;-86
2023/06/09 11:17:33;;;;;;;16.17;3.42;;;;;;;27.24;42.11;100374.34;4895047;29;20420;-87
2023/06/09 11:20:11;;;;;;;15.65;3.45;;;;;;;27.08;45.40;100364.00;4902156;29;20033;-88
2023/06/09 11:22:43;;;;;;;15.60;3.35;;;;;;;27.08;47.95;100368.69;4951602;29;20039;-87
2023/06/09 11:25:30;;;;;;;23.27;4.50;;;;;;;27.12;48.88;100362.47;4952380;29;20109;-87